Terminal Aerodrome Forecast
Issued by NWS Charleston, WV

Current Version | Previous Version | Text Only | Print | Product List | Glossary Off
Versions: 1 2 3 4 5 6 7 8 9 10 11 12 13 14 15 16 17 18 19 20 21 22 23 24 25 26 27 28 29 30

000
FTUS41 KRLX 252100 AAA
TAFBKW
TAF AMD
KBKW 252134Z 2522/2618 15008G17KT 5SM -SHRA VCTS SCT010 OVC025CB
     FM252230 13011G17KT P6SM BKN010
     FM260400 08007KT 5SM SHRA BR OVC008
     FM260800 VRB05KT 3SM -SHRA BR OVC004
     FM261100 34007KT P6SM OVC004
     FM261400 34007KT P6SM OVC015=

USA.gov is the U.S. government's official web portal to all federal, state and local government web resources and services.